createdAt,value
2018-03-02T00:00:34.107Z,9.98
2018-03-02T00:02:36.520Z,11.05
2018-03-02T00:04:39.096Z,11.27
2018-03-02T00:06:41.695Z,10.95
2018-03-02T00:08:44.130Z,7.97
2018-03-02T00:10:46.637Z,10.93
2018-03-02T00:12:49.169Z,12.50
2018-03-02T00:14:51.623Z,10.75
2018-03-02T00:16:54.123Z,11.45
2018-03-02T00:18:56.587Z,9.60
2018-03-02T00:20:59.042Z,11.00
2018-03-02T00:23:01.563Z,10.25
2018-03-02T00:25:04.025Z,11.68
2018-03-02T00:27:06.526Z,11.43
2018-03-02T00:29:08.987Z,11.15
2018-03-02T00:31:11.505Z,11.55
2018-03-02T00:33:14.099Z,12.13
2018-03-02T00:35:16.690Z,13.00
2018-03-02T00:37:19.120Z,12.50
2018-03-02T00:39:21.603Z,12.70
2018-03-02T00:41:24.127Z,11.12
2018-03-02T00:43:26.577Z,11.65
2018-03-02T00:45:29.040Z,11.38
2018-03-02T00:47:31.511Z,12.60
2018-03-02T00:49:33.972Z,12.98
2018-03-02T00:51:36.413Z,11.70
2018-03-02T00:53:38.871Z,10.50
2018-03-02T00:55:41.380Z,12.98
2018-03-02T00:57:43.881Z,12.37
2018-03-02T00:59:46.342Z,12.63
2018-03-02T01:01:48.812Z,12.35
2018-03-02T01:03:51.293Z,10.88
2018-03-02T01:05:53.738Z,12.32
2018-03-02T01:07:56.505Z,12.93
2018-03-02T01:09:58.942Z,12.07
2018-03-02T01:12:01.382Z,12.80
2018-03-02T01:14:03.845Z,12.60
2018-03-02T01:16:06.285Z,8.68
2018-03-02T01:18:08.753Z,13.10
2018-03-02T01:20:11.218Z,10.88
2018-03-02T01:22:13.741Z,11.20
2018-03-02T01:24:16.227Z,12.43
2018-03-02T01:26:18.681Z,10.25
2018-03-02T01:28:21.141Z,9.93
2018-03-02T01:30:23.719Z,11.82
2018-03-02T01:32:26.226Z,10.48
2018-03-02T01:34:28.686Z,12.43
2018-03-02T01:36:31.166Z,12.52
2018-03-02T01:38:33.637Z,14.43
2018-03-02T01:40:36.073Z,12.35
2018-03-02T01:42:38.573Z,11.30
2018-03-02T01:44:41.053Z,12.85
2018-03-02T01:46:43.536Z,8.70
2018-03-02T01:48:46.126Z,10.93
2018-03-02T01:50:48.637Z,12.43
2018-03-02T01:52:51.231Z,11.60
2018-03-02T01:54:53.677Z,10.85
2018-03-02T01:56:56.212Z,13.82
2018-03-02T01:58:58.697Z,11.57
2018-03-02T02:01:01.149Z,14.27
2018-03-02T02:03:03.609Z,12.18
2018-03-02T02:05:06.191Z,10.55
2018-03-02T02:07:08.684Z,10.30
2018-03-02T02:09:11.190Z,12.35
2018-03-02T02:11:13.686Z,11.70
2018-03-02T02:13:16.159Z,12.95
2018-03-02T02:15:18.657Z,12.52
2018-03-02T02:17:21.142Z,12.85
2018-03-02T02:19:23.639Z,11.30
2018-03-02T02:21:26.090Z,9.05
2018-03-02T02:23:28.614Z,13.62
2018-03-02T02:25:31.108Z,12.10
2018-03-02T02:27:33.552Z,11.57
2018-03-02T02:29:36.041Z,12.40
2018-03-02T02:31:38.494Z,13.77
2018-03-02T02:33:41.022Z,10.68
2018-03-02T02:35:43.584Z,8.73
2018-03-02T02:37:46.041Z,10.27
2018-03-02T02:39:48.574Z,12.60
2018-03-02T02:41:51.068Z,11.73
2018-03-02T02:43:53.521Z,11.98
2018-03-02T02:45:55.977Z,10.55
2018-03-02T02:47:58.543Z,12.30
2018-03-02T02:50:01.004Z,11.65
2018-03-02T02:52:03.470Z,12.43
2018-03-02T02:54:05.918Z,10.13
2018-03-02T02:56:08.374Z,11.35
2018-03-02T02:58:10.906Z,13.02
2018-03-02T03:00:13.387Z,14.23
2018-03-02T03:02:15.862Z,10.93
2018-03-02T03:04:18.385Z,9.50
2018-03-02T03:06:20.843Z,13.60
2018-03-02T03:08:23.333Z,12.05
2018-03-02T03:10:25.951Z,12.50
2018-03-02T03:12:28.407Z,8.48
2018-03-02T03:14:30.952Z,14.45
2018-03-02T03:16:33.408Z,13.90
2018-03-02T03:18:35.898Z,9.48
2018-03-02T03:20:38.378Z,14.70
2018-03-02T03:22:40.854Z,13.48
2018-03-02T03:24:43.289Z,13.48
2018-03-02T03:26:45.815Z,15.70
2018-03-02T03:28:48.270Z,12.60
2018-03-02T03:30:50.719Z,13.05
2018-03-02T03:32:53.287Z,10.48
2018-03-02T03:34:55.888Z,13.98
2018-03-02T03:36:58.393Z,11.05
2018-03-02T03:39:00.869Z,12.95
2018-03-02T03:41:03.306Z,15.75
2018-03-02T03:43:05.773Z,14.20
2018-03-02T03:45:08.258Z,14.20
2018-03-02T03:47:10.708Z,14.40
2018-03-02T03:49:13.234Z,13.52
2018-03-02T03:51:15.754Z,13.25
2018-03-02T03:53:18.175Z,12.48
2018-03-02T03:55:20.732Z,15.40
2018-03-02T03:57:23.222Z,12.55
2018-03-02T03:59:25.699Z,14.43
2018-03-02T04:01:28.162Z,13.68
2018-03-02T04:03:30.786Z,13.55
2018-03-02T04:05:33.228Z,13.77
2018-03-02T04:07:37.202Z,14.02
2018-03-02T04:09:39.798Z,12.30
2018-03-02T04:11:42.283Z,12.95
2018-03-02T04:13:44.832Z,15.23
2018-03-02T04:15:47.323Z,13.38
2018-03-02T04:17:49.874Z,13.62
2018-03-02T04:19:52.354Z,14.63
2018-03-02T04:21:54.809Z,11.57
2018-03-02T04:23:57.263Z,15.45
2018-03-02T04:25:59.744Z,12.30
2018-03-02T04:28:02.241Z,15.52
2018-03-02T04:30:04.735Z,13.30
2018-03-02T04:32:07.325Z,12.93
2018-03-02T04:34:09.797Z,9.57
2018-03-02T04:36:12.259Z,10.07
2018-03-02T04:38:14.808Z,15.15
2018-03-02T04:40:17.349Z,10.50
2018-03-02T04:42:19.858Z,12.20
2018-03-02T04:44:22.304Z,12.85
2018-03-02T04:46:24.749Z,12.40
2018-03-02T04:48:27.340Z,11.32
2018-03-02T04:50:29.765Z,10.95
2018-03-02T04:52:32.360Z,10.63
2018-03-02T04:54:34.855Z,15.93
2018-03-02T04:56:37.449Z,15.55
2018-03-02T04:58:39.996Z,13.57
2018-03-02T05:00:42.548Z,15.80
2018-03-02T05:02:44.970Z,15.07
2018-03-02T05:04:47.496Z,16.65
2018-03-02T05:06:49.945Z,12.50
2018-03-02T05:08:52.393Z,15.07
2018-03-02T05:10:54.873Z,12.65
2018-03-02T05:12:57.334Z,15.60
2018-03-02T05:14:59.819Z,13.52
2018-03-02T05:17:02.386Z,14.07
2018-03-02T05:19:04.904Z,14.18
2018-03-02T05:21:07.347Z,16.30
2018-03-02T05:23:09.891Z,13.00
2018-03-02T05:25:12.420Z,14.80
2018-03-02T05:27:14.845Z,14.93
2018-03-02T05:29:17.333Z,16.37
2018-03-02T05:31:19.838Z,13.65
2018-03-02T05:33:22.331Z,15.23
2018-03-02T05:35:24.789Z,15.05
2018-03-02T05:37:27.262Z,13.80
2018-03-02T05:39:29.847Z,14.50
2018-03-02T05:41:32.347Z,14.15
2018-03-02T05:43:34.805Z,8.65
2018-03-02T05:45:37.410Z,12.75
2018-03-02T05:47:39.885Z,17.12
2018-03-02T05:49:42.366Z,13.68
2018-03-02T05:51:44.844Z,10.05
2018-03-02T05:53:47.330Z,14.30
2018-03-02T05:55:49.830Z,18.33
2018-03-02T05:57:52.289Z,11.73
2018-03-02T05:59:54.805Z,9.93
2018-03-02T06:01:57.300Z,12.10
2018-03-02T06:03:59.762Z,16.10
2018-03-02T06:06:02.314Z,9.13
2018-03-02T06:08:04.819Z,14.87
2018-03-02T06:10:07.327Z,15.23
2018-03-02T06:12:09.822Z,13.93
2018-03-02T06:14:12.400Z,14.57
2018-03-02T06:16:15.000Z,13.13
2018-03-02T06:18:17.571Z,14.43
2018-03-02T06:20:20.005Z,13.70
2018-03-02T06:22:22.566Z,9.73
2018-03-02T06:24:25.044Z,16.40
2018-03-02T06:26:27.550Z,14.15
2018-03-02T06:28:30.027Z,13.75
2018-03-02T06:30:32.542Z,13.02
2018-03-02T06:32:35.034Z,13.55
2018-03-02T06:34:37.524Z,11.30
2018-03-02T06:36:40.040Z,17.20
2018-03-02T06:38:42.553Z,12.20
2018-03-02T06:40:45.048Z,14.50
2018-03-02T06:42:47.538Z,14.68
2018-03-02T06:44:50.030Z,11.80
2018-03-02T06:46:52.509Z,14.85
2018-03-02T06:48:55.015Z,16.00
2018-03-02T06:50:57.572Z,14.52
2018-03-02T06:53:00.177Z,17.73
2018-03-02T06:55:02.763Z,14.73
2018-03-02T06:57:05.197Z,14.23
2018-03-02T06:59:07.700Z,14.27
2018-03-02T07:01:10.190Z,17.58
2018-03-02T07:03:12.710Z,16.75
2018-03-02T07:05:15.251Z,16.55
2018-03-02T07:07:17.746Z,15.77
2018-03-02T07:09:20.192Z,14.43
2018-03-02T07:11:22.712Z,15.93
2018-03-02T07:13:25.215Z,14.02
2018-03-02T07:15:27.695Z,11.20
2018-03-02T07:17:30.182Z,16.50
2018-03-02T07:19:32.793Z,17.73
2018-03-02T07:21:35.325Z,10.50
2018-03-02T07:23:37.822Z,14.68
2018-03-02T07:25:40.306Z,14.90
2018-03-02T07:27:42.757Z,14.35
2018-03-02T07:29:45.281Z,13.23
2018-03-02T07:31:47.711Z,14.60
2018-03-02T07:33:50.255Z,15.27
2018-03-02T07:35:52.722Z,11.68
2018-03-02T07:37:55.171Z,10.15
2018-03-02T07:39:57.733Z,8.25
2018-03-02T07:42:00.288Z,15.95
2018-03-02T07:44:02.770Z,12.15
2018-03-02T07:46:05.230Z,16.15
2018-03-02T07:48:07.801Z,12.18
2018-03-02T07:50:11.208Z,14.30
2018-03-02T07:52:13.736Z,9.45
2018-03-02T07:54:16.260Z,14.07
2018-03-02T07:56:18.705Z,14.27
2018-03-02T07:58:21.167Z,18.37
2018-03-02T08:00:23.671Z,13.23
2018-03-02T08:02:26.165Z,11.73
2018-03-02T08:04:28.703Z,10.57
2018-03-02T08:06:31.147Z,11.30
2018-03-02T08:08:33.615Z,13.77
2018-03-02T08:10:36.146Z,13.07
2018-03-02T08:12:38.639Z,10.93
2018-03-02T08:14:41.100Z,10.07
2018-03-02T08:16:43.578Z,11.75
2018-03-02T08:18:46.027Z,13.98
2018-03-02T08:20:48.466Z,17.90
2018-03-02T08:22:50.993Z,16.15
2018-03-02T08:24:53.467Z,14.98
2018-03-02T08:26:55.997Z,12.73
2018-03-02T08:28:58.476Z,12.70
2018-03-02T08:31:00.928Z,17.70
2018-03-02T08:33:03.462Z,14.85
2018-03-02T08:35:06.061Z,17.20
2018-03-02T08:37:08.656Z,12.43
2018-03-02T08:39:11.126Z,17.80
2018-03-02T08:41:13.637Z,16.83
2018-03-02T08:43:16.127Z,18.12
2018-03-02T08:45:18.578Z,15.95
2018-03-02T08:47:21.017Z,11.93
2018-03-02T08:49:23.537Z,9.18
2018-03-02T08:51:26.037Z,17.83
2018-03-02T08:53:28.491Z,10.30
2018-03-02T08:55:30.957Z,16.98
2018-03-02T08:57:34.196Z,16.70
2018-03-02T08:59:36.738Z,16.45
2018-03-02T09:01:39.158Z,20.35
2018-03-02T09:03:41.678Z,11.90
2018-03-02T09:05:44.163Z,12.13
2018-03-02T09:07:46.624Z,15.60
2018-03-02T09:09:49.156Z,13.88
2018-03-02T09:11:51.588Z,16.27
2018-03-02T09:13:54.107Z,17.27
2018-03-02T09:15:56.602Z,17.70
2018-03-02T09:17:59.106Z,18.35
2018-03-02T09:20:01.596Z,16.62
2018-03-02T09:22:04.047Z,13.62
2018-03-02T09:24:06.511Z,17.40
2018-03-02T09:26:09.117Z,12.65
2018-03-02T09:28:11.582Z,20.10
2018-03-02T09:30:14.131Z,10.52
2018-03-02T09:32:16.557Z,12.48
2018-03-02T09:34:19.176Z,17.60
2018-03-02T09:36:21.688Z,18.80
2018-03-02T09:38:24.157Z,16.30
2018-03-02T09:40:26.646Z,13.10
2018-03-02T09:42:29.138Z,14.13
2018-03-02T09:44:31.634Z,17.85
2018-03-02T09:46:34.128Z,19.10
2018-03-02T09:48:36.626Z,17.98
2018-03-02T09:50:39.093Z,18.08
2018-03-02T09:52:41.569Z,19.83
2018-03-02T09:54:44.063Z,19.90
2018-03-02T09:56:46.592Z,15.98
2018-03-02T09:58:49.063Z,15.75
2018-03-02T10:00:51.628Z,19.58
2018-03-02T10:02:54.178Z,15.35
2018-03-02T10:04:56.698Z,16.35
2018-03-02T10:06:59.133Z,16.40
2018-03-02T10:09:01.623Z,16.80
2018-03-02T10:11:04.213Z,13.62
2018-03-02T10:13:06.727Z,18.92
2018-03-02T10:15:09.182Z,12.15
2018-03-02T10:17:11.815Z,17.27
2018-03-02T10:19:14.327Z,17.65
2018-03-02T10:21:16.769Z,17.20
2018-03-02T10:23:19.309Z,16.15
2018-03-02T10:25:21.808Z,20.00
2018-03-02T10:27:24.262Z,17.73
2018-03-02T10:29:26.787Z,19.73
2018-03-02T10:31:29.313Z,17.08
2018-03-02T10:33:31.753Z,21.67
2018-03-02T10:35:34.243Z,17.58
2018-03-02T10:37:36.823Z,19.35
2018-03-02T10:39:39.358Z,18.65
2018-03-02T10:41:41.847Z,19.62
2018-03-02T10:43:44.292Z,16.08
2018-03-02T10:45:46.790Z,20.70
2018-03-02T10:47:49.333Z,20.23
2018-03-02T10:49:51.811Z,19.98
2018-03-02T10:51:54.350Z,19.00
2018-03-02T10:53:56.912Z,17.65
2018-03-02T10:55:59.418Z,23.73
2018-03-02T10:58:01.900Z,21.00
2018-03-02T11:00:04.495Z,22.65
2018-03-02T11:02:07.050Z,20.88
2018-03-02T11:04:09.584Z,21.15
2018-03-02T11:06:12.129Z,18.65
2018-03-02T11:08:14.571Z,21.33
2018-03-02T11:10:17.014Z,18.12
2018-03-02T11:12:19.520Z,16.37
2018-03-02T11:14:22.016Z,23.42
2018-03-02T11:16:24.479Z,21.45
2018-03-02T11:18:26.978Z,18.77
2018-03-02T11:20:29.525Z,16.75
2018-03-02T11:22:31.977Z,20.60
2018-03-02T11:24:34.549Z,17.75
2018-03-02T11:26:37.019Z,19.05
2018-03-02T11:28:39.609Z,21.20
2018-03-02T11:30:42.070Z,15.07
2018-03-02T11:32:44.494Z,23.65
2018-03-02T11:34:47.009Z,20.15
2018-03-02T11:36:49.496Z,14.93
2018-03-02T11:38:52.068Z,23.50
2018-03-02T11:40:54.639Z,14.40
2018-03-02T11:42:57.098Z,22.02
2018-03-02T11:44:59.690Z,21.25
2018-03-02T11:47:02.196Z,21.37
2018-03-02T11:49:04.612Z,22.65
2018-03-02T11:51:07.109Z,21.30
2018-03-02T11:53:09.610Z,17.00
2018-03-02T11:55:12.123Z,19.08
2018-03-02T11:57:14.601Z,15.93
2018-03-02T11:59:17.041Z,21.58
2018-03-02T12:01:19.491Z,21.83
2018-03-02T12:03:21.973Z,24.05
2018-03-02T12:05:24.420Z,20.33
2018-03-02T12:07:26.894Z,23.25
2018-03-02T12:09:29.465Z,21.75
2018-03-02T12:11:31.962Z,21.70
2018-03-02T12:13:34.406Z,15.88
2018-03-02T12:15:36.934Z,17.12
2018-03-02T12:17:39.414Z,20.48
2018-03-02T12:19:41.898Z,17.92
2018-03-02T12:21:44.370Z,18.48
2018-03-02T12:23:46.825Z,22.77
2018-03-02T12:25:49.410Z,20.27
2018-03-02T12:27:52.495Z,19.95
2018-03-02T12:29:54.968Z,14.30
2018-03-02T12:31:57.501Z,20.65
2018-03-02T12:34:00.011Z,17.48
2018-03-02T12:36:02.574Z,22.73
2018-03-02T12:38:05.023Z,16.25
2018-03-02T12:40:07.529Z,18.33
2018-03-02T12:42:10.016Z,21.50
2018-03-02T12:44:12.500Z,20.95
2018-03-02T12:46:14.966Z,19.23
2018-03-02T12:48:17.549Z,22.02
2018-03-02T12:50:20.146Z,22.73
2018-03-02T12:52:22.599Z,22.00
2018-03-02T12:54:25.129Z,22.92
2018-03-02T12:56:27.580Z,20.77
2018-03-02T12:58:30.035Z,22.42
2018-03-02T13:00:32.546Z,22.10
2018-03-02T13:02:35.039Z,21.25
2018-03-02T13:04:37.539Z,23.15
2018-03-02T13:06:40.057Z,19.55
2018-03-02T13:08:42.574Z,20.67
2018-03-02T13:10:45.133Z,20.52
2018-03-02T13:12:47.600Z,19.00
2018-03-02T13:14:50.184Z,24.80
2018-03-02T13:16:52.695Z,23.50
2018-03-02T13:18:55.209Z,23.20
2018-03-02T13:20:57.845Z,22.87
2018-03-02T13:23:00.335Z,20.62
2018-03-02T13:25:02.796Z,20.05
2018-03-02T13:27:17.061Z,21.98
2018-03-02T13:29:19.586Z,18.65
2018-03-02T13:31:22.185Z,20.67
2018-03-02T13:33:36.395Z,20.77
2018-03-02T13:35:38.901Z,22.25
2018-03-02T13:37:41.435Z,24.05
2018-03-02T13:39:55.814Z,20.50
2018-03-02T13:42:13.168Z,18.37
2018-03-02T13:44:15.645Z,22.37
2018-03-02T13:46:18.211Z,20.08
2018-03-02T13:48:41.228Z,19.48
2018-03-02T13:50:43.760Z,18.58
2018-03-02T13:52:46.301Z,17.50
2018-03-02T13:54:48.875Z,19.60
2018-03-02T13:57:03.116Z,21.73
2018-03-02T13:59:05.590Z,16.30
2018-03-02T14:01:08.103Z,22.50
2018-03-02T14:03:22.296Z,13.30
2018-03-02T14:05:24.820Z,25.20
2018-03-02T14:07:27.381Z,20.50
2018-03-02T14:09:29.956Z,22.33
2018-03-02T14:11:32.543Z,22.80
2018-03-02T14:13:35.145Z,19.40
2018-03-02T14:15:37.645Z,22.87
2018-03-02T14:17:40.403Z,22.92
2018-03-02T14:19:42.924Z,18.50
2018-03-02T14:21:45.410Z,20.98
2018-03-02T14:23:48.735Z,24.05
2018-03-02T14:25:51.249Z,21.42
2018-03-02T14:27:53.756Z,19.27
2018-03-02T14:29:56.267Z,20.23
2018-03-02T14:31:58.706Z,22.25
2018-03-02T14:34:01.188Z,22.02
2018-03-02T14:36:03.686Z,24.63
2018-03-02T14:38:06.298Z,17.48
2018-03-02T14:40:08.801Z,22.08
2018-03-02T14:42:11.282Z,20.42
2018-03-02T14:44:13.797Z,24.17
2018-03-02T14:46:16.261Z,23.35
2018-03-02T14:48:18.746Z,20.92
2018-03-02T14:50:21.245Z,21.48
2018-03-02T14:52:23.763Z,20.20
2018-03-02T14:54:26.293Z,17.12
2018-03-02T14:56:28.736Z,23.67
2018-03-02T14:58:31.210Z,19.05
2018-03-02T15:00:33.742Z,20.60
2018-03-02T15:02:36.202Z,25.50
2018-03-02T15:04:38.685Z,19.15
2018-03-02T15:06:41.227Z,24.02
2018-03-02T15:08:43.787Z,22.37
2018-03-02T15:10:46.315Z,23.80
2018-03-02T15:12:48.771Z,22.65
2018-03-02T15:14:51.273Z,23.55
2018-03-02T15:16:53.754Z,23.65
2018-03-02T15:18:56.319Z,24.55
2018-03-02T15:20:58.822Z,22.33
2018-03-02T15:23:01.507Z,20.98
2018-03-02T15:25:03.942Z,20.83
2018-03-02T15:27:06.456Z,23.20
2018-03-02T15:29:08.932Z,21.80
2018-03-02T15:31:11.433Z,23.35
2018-03-02T15:33:13.926Z,19.85
2018-03-02T15:35:16.416Z,21.75
2018-03-02T15:37:19.002Z,21.77
2018-03-02T15:39:21.588Z,23.33
2018-03-02T15:41:24.134Z,24.70
2018-03-02T15:43:26.687Z,25.50
2018-03-02T15:45:29.181Z,23.62
2018-03-02T15:47:31.662Z,25.08
2018-03-02T15:49:34.244Z,24.80
2018-03-02T15:51:36.719Z,17.40
2018-03-02T15:53:39.262Z,21.00
2018-03-02T15:55:41.832Z,20.00
2018-03-02T15:57:44.427Z,24.30
2018-03-02T15:59:46.923Z,19.73
2018-03-02T16:01:49.526Z,22.45
2018-03-02T16:03:51.994Z,23.58
2018-03-02T16:05:54.497Z,24.30
2018-03-02T16:07:56.967Z,24.10
2018-03-02T16:09:59.497Z,22.35
2018-03-02T16:12:01.944Z,21.75
2018-03-02T16:14:04.438Z,23.67
2018-03-02T16:16:06.903Z,21.95
2018-03-02T16:18:09.478Z,22.40
2018-03-02T16:20:12.065Z,25.70
2018-03-02T16:22:14.513Z,22.87
2018-03-02T16:24:17.037Z,24.15
2018-03-02T16:26:19.533Z,19.50
2018-03-02T16:28:22.138Z,23.73
2018-03-02T16:30:24.597Z,25.85
2018-03-02T16:32:27.323Z,25.55
2018-03-02T16:34:29.785Z,21.30
2018-03-02T16:36:32.301Z,22.17
2018-03-02T16:38:34.829Z,23.62
2018-03-02T16:40:37.403Z,23.30
2018-03-02T16:42:39.897Z,23.48
2018-03-02T16:44:42.486Z,18.40
2018-03-02T16:46:45.217Z,18.45
2018-03-02T16:48:47.754Z,23.52
2018-03-02T16:50:50.232Z,20.40
2018-03-02T16:52:52.740Z,24.90
2018-03-02T16:54:55.359Z,21.00
2018-03-02T16:56:57.867Z,16.27
2018-03-02T16:59:00.346Z,18.12
2018-03-02T17:01:02.851Z,22.27
2018-03-02T17:03:05.363Z,21.92
2018-03-02T17:05:07.838Z,22.87
2018-03-02T17:07:10.329Z,24.05
2018-03-02T17:09:12.772Z,17.33
2018-03-02T17:11:15.313Z,21.42
2018-03-02T17:13:17.850Z,24.08
2018-03-02T17:15:20.503Z,22.77
2018-03-02T17:17:23.015Z,21.23
2018-03-02T17:19:25.546Z,23.10
2018-03-02T17:21:28.094Z,23.33
2018-03-02T17:23:30.578Z,23.40
2018-03-02T17:25:33.103Z,20.90
2018-03-02T17:27:35.629Z,23.08
2018-03-02T17:29:38.098Z,19.95
2018-03-02T17:31:40.683Z,22.73
2018-03-02T17:33:43.145Z,23.23
2018-03-02T17:35:45.636Z,23.42
2018-03-02T17:37:48.097Z,22.48
2018-03-02T17:39:50.640Z,22.62
2018-03-02T17:41:53.179Z,20.10
2018-03-02T17:43:55.819Z,22.42
2018-03-02T17:45:58.334Z,23.95
2018-03-02T17:48:00.901Z,20.15
2018-03-02T17:50:03.486Z,23.87
2018-03-02T17:52:05.943Z,24.10
2018-03-02T17:54:08.495Z,17.98
2018-03-02T17:56:11.034Z,28.52
2018-03-02T17:58:13.684Z,19.10
2018-03-02T18:00:16.165Z,24.20
2018-03-02T18:02:18.768Z,23.23
2018-03-02T18:04:21.274Z,23.67
2018-03-02T18:06:23.781Z,21.90
2018-03-02T18:08:26.264Z,23.25
2018-03-02T18:10:28.839Z,19.25
2018-03-02T18:12:31.542Z,20.58
2018-03-02T18:14:34.032Z,21.30
2018-03-02T18:16:36.555Z,19.80
2018-03-02T18:18:39.024Z,22.35
2018-03-02T18:20:41.511Z,23.67
2018-03-02T18:22:43.986Z,23.48
2018-03-02T18:24:46.520Z,20.50
2018-03-02T18:26:49.094Z,22.60
2018-03-02T18:28:51.606Z,21.90
2018-03-02T18:30:54.070Z,21.27
2018-03-02T18:32:56.571Z,19.50
2018-03-02T18:34:59.180Z,20.45
2018-03-02T18:37:01.684Z,23.42
2018-03-02T18:39:04.269Z,20.80
2018-03-02T18:41:06.731Z,21.65
2018-03-02T18:43:09.344Z,21.77
2018-03-02T18:45:11.951Z,19.00
2018-03-02T18:47:14.436Z,22.48
2018-03-02T18:49:17.025Z,21.45
2018-03-02T18:51:19.625Z,19.12
2018-03-02T18:53:22.216Z,20.65
2018-03-02T18:55:24.754Z,21.20
2018-03-02T18:57:27.235Z,22.77
2018-03-02T18:59:29.805Z,21.15
2018-03-02T19:01:32.408Z,21.77
2018-03-02T19:03:34.900Z,21.60
2018-03-02T19:05:37.480Z,22.10
2018-03-02T19:07:40.079Z,21.98
2018-03-02T19:09:42.681Z,20.05
2018-03-02T19:11:45.171Z,20.88
2018-03-02T19:13:47.708Z,22.10
2018-03-02T19:15:50.200Z,22.52
2018-03-02T19:17:52.746Z,21.48
2018-03-02T19:19:55.220Z,27.65
2018-03-02T19:21:57.743Z,23.30
2018-03-02T19:24:00.253Z,21.70
2018-03-02T19:26:02.906Z,20.92
2018-03-02T19:28:05.418Z,21.80
2018-03-02T19:30:08.125Z,20.30
2018-03-02T19:32:10.736Z,22.25
2018-03-02T19:34:13.281Z,19.73
2018-03-02T19:36:15.904Z,19.92
2018-03-02T19:38:18.422Z,18.37
2018-03-02T19:40:20.935Z,21.10
2018-03-02T19:42:23.426Z,20.12
2018-03-02T19:44:26.181Z,22.10
2018-03-02T19:46:29.046Z,20.60
2018-03-02T19:48:31.897Z,19.37
2018-03-02T19:50:34.789Z,20.65
2018-03-02T19:52:37.381Z,19.52
2018-03-02T19:54:41.105Z,21.33
2018-03-02T19:56:43.696Z,21.87
2018-03-02T19:58:46.205Z,21.55
2018-03-02T20:00:48.671Z,20.60
2018-03-02T20:02:51.443Z,18.42
2018-03-02T20:04:54.088Z,20.25
2018-03-02T20:06:56.882Z,19.87
2018-03-02T20:08:59.666Z,21.40
2018-03-02T20:11:02.216Z,21.42
2018-03-02T20:13:04.786Z,20.92
2018-03-02T20:15:07.282Z,22.70
2018-03-02T20:17:10.015Z,22.17
2018-03-02T20:19:12.867Z,18.98
2018-03-02T20:21:15.670Z,18.60
2018-03-02T20:23:18.490Z,19.73
2018-03-02T20:25:21.306Z,20.30
2018-03-02T20:27:24.181Z,19.67
2018-03-02T20:29:26.755Z,19.55
2018-03-02T20:31:29.565Z,18.50
2018-03-02T20:33:32.350Z,18.25
2018-03-02T20:35:35.231Z,18.80
2018-03-02T20:37:37.760Z,18.98
2018-03-02T20:39:40.262Z,19.83
2018-03-02T20:41:42.756Z,19.50
2018-03-02T20:43:45.336Z,19.33
2018-03-02T20:45:47.867Z,20.75
2018-03-02T20:47:50.407Z,19.73
2018-03-02T20:49:52.932Z,21.08
2018-03-02T20:51:55.622Z,19.15
2018-03-02T20:53:58.246Z,20.85
2018-03-02T20:56:00.807Z,19.65
2018-03-02T20:58:03.386Z,20.10
2018-03-02T21:00:05.876Z,19.37
2018-03-02T21:02:08.493Z,19.25
2018-03-02T21:04:11.068Z,18.75
2018-03-02T21:06:13.668Z,20.85
2018-03-02T21:08:16.166Z,19.25
2018-03-02T21:10:18.634Z,19.62
2018-03-02T21:12:21.166Z,19.62
2018-03-02T21:14:23.716Z,19.35
2018-03-02T21:16:26.281Z,18.73
2018-03-02T21:18:28.767Z,19.87
2018-03-02T21:20:31.268Z,20.35
2018-03-02T21:22:33.762Z,19.77
2018-03-02T21:24:36.270Z,19.65
2018-03-02T21:26:38.847Z,19.73
2018-03-02T21:28:41.338Z,18.52
2018-03-02T21:30:43.916Z,19.37
2018-03-02T21:32:46.431Z,19.23
2018-03-02T21:34:49.027Z,19.10
2018-03-02T21:36:51.522Z,18.62
2018-03-02T21:38:54.148Z,19.20
2018-03-02T21:40:56.688Z,19.95
2018-03-02T21:42:59.238Z,19.80
2018-03-02T21:45:01.816Z,16.98
2018-03-02T21:47:04.321Z,18.55
2018-03-02T21:49:06.837Z,19.40
2018-03-02T21:51:09.409Z,17.45
2018-03-02T21:53:11.922Z,20.05
2018-03-02T21:55:14.438Z,18.87
2018-03-02T21:57:16.926Z,18.95
2018-03-02T21:59:19.488Z,18.35
2018-03-02T22:01:22.022Z,18.65
2018-03-02T22:03:24.521Z,19.08
2018-03-02T22:05:27.071Z,20.33
2018-03-02T22:07:29.581Z,19.55
2018-03-02T22:09:32.040Z,20.40
2018-03-02T22:11:34.607Z,19.90
2018-03-02T22:13:37.073Z,19.77
2018-03-02T22:15:39.675Z,19.50
2018-03-02T22:17:42.272Z,20.20
2018-03-02T22:19:44.795Z,18.95
2018-03-02T22:21:47.366Z,18.83
2018-03-02T22:23:49.972Z,18.25
2018-03-02T22:25:52.547Z,19.33
2018-03-02T22:27:55.025Z,20.05
2018-03-02T22:29:57.576Z,19.95
2018-03-02T22:32:00.054Z,20.20
2018-03-02T22:34:02.521Z,19.12
2018-03-02T22:36:05.121Z,20.25
2018-03-02T22:38:07.599Z,20.42
2018-03-02T22:40:10.108Z,20.80
2018-03-02T22:42:12.623Z,19.90
2018-03-02T22:44:15.102Z,19.83
2018-03-02T22:46:17.562Z,20.05
2018-03-02T22:48:20.111Z,20.70
2018-03-02T22:50:22.611Z,20.40
2018-03-02T22:52:25.097Z,21.90
2018-03-02T22:54:27.616Z,21.05
2018-03-02T22:56:30.151Z,19.85
2018-03-02T22:58:32.743Z,19.80
2018-03-02T23:00:35.173Z,21.23
2018-03-02T23:02:37.738Z,20.10
2018-03-02T23:04:40.292Z,20.77
2018-03-02T23:06:42.759Z,19.98
2018-03-02T23:08:45.232Z,20.17
2018-03-02T23:10:47.737Z,20.10
2018-03-02T23:12:50.246Z,20.20
2018-03-02T23:14:52.692Z,20.73
2018-03-02T23:16:55.185Z,19.80
2018-03-02T23:18:57.677Z,21.80
2018-03-02T23:21:00.168Z,20.48
2018-03-02T23:23:02.622Z,21.48
2018-03-02T23:25:05.162Z,21.62
2018-03-02T23:27:07.668Z,19.15
2018-03-02T23:29:10.123Z,21.35
2018-03-02T23:31:12.551Z,20.62
2018-03-02T23:33:15.128Z,21.73
2018-03-02T23:35:17.579Z,20.98
2018-03-02T23:37:20.114Z,19.80
2018-03-02T23:39:22.633Z,19.50
2018-03-02T23:41:25.104Z,20.75
2018-03-02T23:43:27.592Z,21.50
2018-03-02T23:45:30.087Z,21.45
2018-03-02T23:47:32.579Z,21.58
2018-03-02T23:49:35.107Z,19.25
2018-03-02T23:51:37.549Z,20.70
2018-03-02T23:53:40.059Z,19.73
2018-03-02T23:55:42.548Z,22.13
2018-03-02T23:57:45.048Z,21.90
2018-03-02T23:59:47.537Z,21.55
